Terminal Aerodrome Forecast
Issued by NWS Chicago, IL

Home | Current Version | Previous Version | Graphics & Text | Print | Product List | Glossary On
Versions: 1 2 3 4 5 6 7 8 9 10 11 12 13 14 15 16 17 18 19 20 21 22 23 24 25 26 27
000
FTUS43 KLOT 282340
TAFRFD
TAF
KRFD 282340Z 2900/2924 05008KT 2SM -RA BR SCT007 OVC015
      TEMPO 2900/2902 BKN007
     FM290200 04008KT 3SM BR OVC007
     FM290700 01005KT 3SM BR OVC003
     FM291400 03009KT P6SM OVC008
     FM291600 05009KT P6SM OVC015
     FM292200 06008KT P6SM SCT025=

USA.gov is the U.S. government's official web portal to all federal, state and local government web resources and services.